createdAt,value
2022-11-06T00:00:32.949Z,13.10
2022-11-06T00:03:01.801Z,13.17
2022-11-06T00:05:49.270Z,13.03
2022-11-06T00:08:44.720Z,12.10
2022-11-06T00:11:15.499Z,15.10
2022-11-06T00:13:43.862Z,13.87
2022-11-06T00:16:12.887Z,14.63
2022-11-06T00:18:40.947Z,15.20
2022-11-06T00:21:14.252Z,13.93
2022-11-06T00:23:42.684Z,13.87
2022-11-06T00:26:14.199Z,13.73
2022-11-06T00:28:42.756Z,16.03
2022-11-06T00:31:15.374Z,16.43
2022-11-06T00:33:43.493Z,17.67
2022-11-06T00:36:14.989Z,17.00
2022-11-06T00:38:43.984Z,17.57
2022-11-06T00:41:14.509Z,18.43
2022-11-06T00:43:42.577Z,21.73
2022-11-06T00:46:12.791Z,17.03
2022-11-06T00:48:41.700Z,16.80
2022-11-06T00:51:18.940Z,14.47
2022-11-06T00:53:47.019Z,15.43
2022-11-06T00:56:19.368Z,13.63
2022-11-06T00:58:48.447Z,15.07
2022-11-06T01:01:17.862Z,16.97
2022-11-06T01:03:47.573Z,14.23
2022-11-06T01:06:20.388Z,13.30
2022-11-06T01:08:49.086Z,14.10
2022-11-06T01:11:37.519Z,15.10
2022-11-06T01:14:16.992Z,17.23
2022-11-06T01:16:45.659Z,16.20
2022-11-06T01:19:15.070Z,15.53
2022-11-06T01:21:44.783Z,14.20
2022-11-06T01:24:19.902Z,15.90
2022-11-06T01:27:05.331Z,14.03
2022-11-06T01:29:36.550Z,17.93
2022-11-06T01:32:05.444Z,15.93
2022-11-06T01:34:34.255Z,16.10
2022-11-06T01:37:02.625Z,16.17
2022-11-06T01:39:29.934Z,14.60
2022-11-06T01:41:57.507Z,15.37
2022-11-06T01:44:34.133Z,16.40
2022-11-06T01:47:05.554Z,18.17
2022-11-06T01:49:39.156Z,19.37
2022-11-06T01:52:10.566Z,22.80
2022-11-06T01:54:41.809Z,21.13
2022-11-06T01:57:11.167Z,20.23
2022-11-06T01:59:45.174Z,16.50
2022-11-06T02:02:16.393Z,18.00
2022-11-06T02:04:48.345Z,24.70
2022-11-06T02:07:18.043Z,27.07
2022-11-06T02:09:45.659Z,21.50
2022-11-06T02:12:47.159Z,21.33
2022-11-06T02:15:22.591Z,24.33
2022-11-06T02:17:52.927Z,24.90
2022-11-06T02:20:37.936Z,23.50
2022-11-06T02:23:28.313Z,27.37
2022-11-06T02:26:21.155Z,24.40
2022-11-06T02:28:56.123Z,22.47
2022-11-06T02:31:32.134Z,23.40
2022-11-06T02:34:08.556Z,24.53
2022-11-06T02:36:55.437Z,25.07
2022-11-06T02:39:27.534Z,22.40
2022-11-06T02:41:57.801Z,21.10
2022-11-06T02:44:31.495Z,20.87
2022-11-06T02:47:05.067Z,17.50
2022-11-06T02:49:43.050Z,17.03
2022-11-06T02:52:23.352Z,18.50
2022-11-06T02:54:56.785Z,21.60
2022-11-06T02:57:27.121Z,17.10
2022-11-06T03:00:14.016Z,18.10
2022-11-06T03:03:02.389Z,17.20
2022-11-06T03:05:47.289Z,15.67
2022-11-06T03:08:35.633Z,16.83
2022-11-06T03:11:03.321Z,15.80
2022-11-06T03:13:44.850Z,15.10
2022-11-06T03:16:30.926Z,14.67
2022-11-06T03:19:06.833Z,12.97
2022-11-06T03:21:56.242Z,14.60
2022-11-06T03:24:33.879Z,14.70
2022-11-06T03:27:10.741Z,16.13
2022-11-06T03:29:49.724Z,16.60
2022-11-06T03:32:30.184Z,17.57
2022-11-06T03:35:09.439Z,15.03
2022-11-06T03:37:42.724Z,18.77
2022-11-06T03:40:15.636Z,17.17
2022-11-06T03:42:45.084Z,16.87
2022-11-06T03:45:20.326Z,14.80
2022-11-06T03:47:54.620Z,15.77
2022-11-06T03:50:34.412Z,13.53
2022-11-06T03:53:34.254Z,14.47
2022-11-06T03:56:18.548Z,15.27
2022-11-06T03:58:49.679Z,14.03
2022-11-06T04:01:23.886Z,16.47
2022-11-06T04:04:16.433Z,15.63
2022-11-06T04:06:57.525Z,17.17
2022-11-06T04:09:47.848Z,16.80
2022-11-06T04:12:38.801Z,17.03
2022-11-06T04:15:09.712Z,16.77
2022-11-06T04:17:38.803Z,19.50
2022-11-06T04:20:11.120Z,21.83
2022-11-06T04:23:12.557Z,19.93
2022-11-06T04:26:26.382Z,16.27
2022-11-06T04:29:05.395Z,17.23
2022-11-06T04:31:43.098Z,14.80
2022-11-06T04:34:38.338Z,16.90
2022-11-06T04:37:17.517Z,17.57
2022-11-06T04:39:56.683Z,19.57
2022-11-06T04:42:43.452Z,16.27
2022-11-06T04:45:28.770Z,17.20
2022-11-06T04:47:57.160Z,15.90
2022-11-06T04:50:27.348Z,16.43
2022-11-06T04:52:55.969Z,16.70
2022-11-06T04:55:23.632Z,16.87
2022-11-06T04:57:51.504Z,16.53
2022-11-06T05:00:19.155Z,15.93
2022-11-06T05:02:46.753Z,18.10
2022-11-06T05:05:14.030Z,18.03
2022-11-06T05:07:41.584Z,16.83
2022-11-06T05:10:10.019Z,19.80
2022-11-06T05:12:37.648Z,18.50
2022-11-06T05:15:05.281Z,19.13
2022-11-06T05:17:36.311Z,18.77
2022-11-06T05:20:05.012Z,23.93
2022-11-06T05:22:51.140Z,30.43
2022-11-06T05:25:18.324Z,29.53
2022-11-06T05:27:46.252Z,24.27
2022-11-06T05:30:13.667Z,24.97
2022-11-06T05:32:41.624Z,21.10
2022-11-06T05:35:09.534Z,21.27
2022-11-06T05:37:37.056Z,20.27
2022-11-06T05:40:05.362Z,21.77
2022-11-06T05:42:32.881Z,20.97
2022-11-06T05:45:00.253Z,21.13
2022-11-06T05:47:27.790Z,21.03
2022-11-06T05:49:55.595Z,23.50
2022-11-06T05:52:23.152Z,23.03
2022-11-06T05:54:50.485Z,22.87
2022-11-06T05:57:18.225Z,23.27
2022-11-06T05:59:45.715Z,21.30
2022-11-06T06:02:13.319Z,20.37
2022-11-06T06:04:40.645Z,20.93
2022-11-06T06:07:08.660Z,19.07
2022-11-06T06:09:36.265Z,19.30
2022-11-06T06:12:03.939Z,18.03
2022-11-06T06:14:31.150Z,18.63
2022-11-06T06:16:58.696Z,18.07
2022-11-06T06:19:26.079Z,19.13
2022-11-06T06:21:53.629Z,15.93
2022-11-06T06:24:21.114Z,19.77
2022-11-06T06:26:48.817Z,19.57
2022-11-06T06:29:16.656Z,17.83
2022-11-06T06:31:44.261Z,19.20
2022-11-06T06:34:11.731Z,18.40
2022-11-06T06:36:39.379Z,19.20
2022-11-06T06:39:06.694Z,18.00
2022-11-06T06:41:34.439Z,18.97
2022-11-06T06:44:01.710Z,17.73
2022-11-06T06:46:29.396Z,17.97
2022-11-06T06:48:56.636Z,19.77
2022-11-06T06:51:24.431Z,20.10
2022-11-06T06:53:52.225Z,20.77
2022-11-06T06:56:20.691Z,24.80
2022-11-06T06:58:48.680Z,31.40
2022-11-06T07:01:16.581Z,36.67
2022-11-06T07:03:44.015Z,46.17
2022-11-06T07:06:11.990Z,44.57
2022-11-06T07:08:39.431Z,33.93
2022-11-06T07:11:09.207Z,29.03
2022-11-06T07:13:36.805Z,26.13
2022-11-06T07:16:06.540Z,27.70
2022-11-06T07:18:35.082Z,27.23
2022-11-06T07:21:06.102Z,31.30
2022-11-06T07:23:35.231Z,34.80
2022-11-06T07:26:04.246Z,37.83
2022-11-06T07:28:31.963Z,38.37
2022-11-06T07:31:01.329Z,35.17
2022-11-06T07:33:29.548Z,32.73
2022-11-06T07:36:02.211Z,29.07
2022-11-06T07:38:29.449Z,25.73
2022-11-06T07:41:00.898Z,25.40
2022-11-06T07:43:28.176Z,24.23
2022-11-06T07:46:00.948Z,24.40
2022-11-06T07:48:29.120Z,25.47
2022-11-06T07:50:57.055Z,28.60
2022-11-06T07:53:25.164Z,27.20
2022-11-06T07:55:54.485Z,23.67
2022-11-06T07:58:22.862Z,24.20
2022-11-06T08:00:56.080Z,25.30
2022-11-06T08:03:25.073Z,25.03
2022-11-06T08:05:52.733Z,25.90
2022-11-06T08:08:20.077Z,25.40
2022-11-06T08:10:47.909Z,26.47
2022-11-06T08:13:18.006Z,26.77
2022-11-06T08:15:45.782Z,24.67
2022-11-06T08:18:13.599Z,25.23
2022-11-06T08:20:41.777Z,23.57
2022-11-06T08:23:11.672Z,23.67
2022-11-06T08:25:40.060Z,26.93
2022-11-06T08:28:07.633Z,27.43
2022-11-06T08:30:35.204Z,27.63
2022-11-06T08:33:05.610Z,25.73
2022-11-06T08:35:35.322Z,27.07
2022-11-06T08:38:03.359Z,29.10
2022-11-06T08:40:31.935Z,29.30
2022-11-06T08:43:04.572Z,25.53
2022-11-06T08:45:32.917Z,21.93
2022-11-06T08:48:04.641Z,19.77
2022-11-06T08:50:33.302Z,15.87
2022-11-06T08:53:04.473Z,14.70
2022-11-06T08:55:32.827Z,14.00
2022-11-06T08:58:01.380Z,14.17
2022-11-06T09:00:29.657Z,15.30
2022-11-06T09:03:06.402Z,14.93
2022-11-06T09:05:34.565Z,15.53
2022-11-06T09:08:02.076Z,12.83
2022-11-06T09:10:29.729Z,14.67
2022-11-06T09:12:59.438Z,14.70
2022-11-06T09:15:27.626Z,12.67
2022-11-06T09:17:55.207Z,15.07
2022-11-06T09:20:25.029Z,14.10
2022-11-06T09:22:53.297Z,13.83
2022-11-06T09:25:22.075Z,14.70
2022-11-06T09:27:58.952Z,13.60
2022-11-06T09:30:29.939Z,14.83
2022-11-06T09:33:00.594Z,13.00
2022-11-06T09:35:31.944Z,13.47
2022-11-06T09:38:08.092Z,11.47
2022-11-06T09:40:51.583Z,10.37
2022-11-06T09:44:04.789Z,9.27
2022-11-06T09:46:52.193Z,9.57
2022-11-06T09:49:31.799Z,7.80
2022-11-06T09:52:23.727Z,7.60
2022-11-06T09:54:58.669Z,6.90
2022-11-06T09:57:47.799Z,5.83
2022-11-06T10:00:17.158Z,6.67
2022-11-06T10:02:48.333Z,5.73
2022-11-06T10:05:35.428Z,7.27
2022-11-06T10:08:26.064Z,6.33
2022-11-06T10:11:06.372Z,6.10
2022-11-06T10:14:00.959Z,6.50
2022-11-06T10:16:32.253Z,5.90
2022-11-06T10:19:33.541Z,5.40
2022-11-06T10:22:17.694Z,5.00
2022-11-06T10:24:58.571Z,6.00
2022-11-06T10:27:28.665Z,5.63
2022-11-06T10:30:32.693Z,5.18
2022-11-06T10:33:31.812Z,5.35
2022-11-06T10:36:22.723Z,5.75
2022-11-06T10:38:52.640Z,7.53
2022-11-06T10:41:26.292Z,4.75
2022-11-06T10:43:58.230Z,6.43
2022-11-06T10:46:36.716Z,6.07
2022-11-06T10:49:21.409Z,5.32
2022-11-06T10:51:57.819Z,5.50
2022-11-06T10:55:16.136Z,4.95
2022-11-06T10:57:57.698Z,4.80
2022-11-06T11:00:25.824Z,5.32
2022-11-06T11:02:57.297Z,5.20
2022-11-06T11:05:26.963Z,17.98
2022-11-06T11:07:55.395Z,6.50
2022-11-06T11:10:36.769Z,7.93
2022-11-06T11:13:08.711Z,6.45
2022-11-06T11:15:48.047Z,8.85
2022-11-06T11:18:22.421Z,8.10
2022-11-06T11:20:52.447Z,8.27
2022-11-06T11:23:25.910Z,9.40
2022-11-06T11:25:55.808Z,9.27
2022-11-06T11:28:31.565Z,6.90
2022-11-06T11:31:09.654Z,7.28
2022-11-06T11:33:39.247Z,7.05
2022-11-06T11:36:09.032Z,10.02
2022-11-06T11:38:39.113Z,8.15
2022-11-06T11:41:24.145Z,7.90
2022-11-06T11:44:13.471Z,7.70
2022-11-06T11:46:54.429Z,8.02
2022-11-06T11:49:33.955Z,7.50
2022-11-06T11:52:04.276Z,6.47
2022-11-06T11:54:36.055Z,6.43
2022-11-06T11:57:07.658Z,6.55
2022-11-06T11:59:49.609Z,6.38
2022-11-06T12:02:28.145Z,5.85
2022-11-06T12:05:18.561Z,6.03
2022-11-06T12:07:57.503Z,6.30
2022-11-06T12:10:38.085Z,7.45
2022-11-06T12:13:24.989Z,6.60
2022-11-06T12:16:15.248Z,5.32
2022-11-06T12:18:57.622Z,4.18
2022-11-06T12:21:40.205Z,4.32
2022-11-06T12:24:24.015Z,5.65
2022-11-06T12:26:56.231Z,3.97
2022-11-06T12:29:35.952Z,5.22
2022-11-06T12:32:15.611Z,4.28
2022-11-06T12:34:57.299Z,4.32
2022-11-06T12:37:41.167Z,5.25
2022-11-06T12:40:25.862Z,5.35
2022-11-06T12:43:21.456Z,4.82
2022-11-06T12:46:22.239Z,5.53
2022-11-06T12:49:14.336Z,4.05
2022-11-06T12:51:44.510Z,4.55
2022-11-06T12:54:30.844Z,4.13
2022-11-06T12:57:04.507Z,4.22
2022-11-06T12:59:56.990Z,4.03
2022-11-06T13:02:55.981Z,3.90
2022-11-06T13:05:29.857Z,4.22
2022-11-06T13:08:05.881Z,5.18
2022-11-06T13:10:45.502Z,6.45
2022-11-06T13:13:23.256Z,6.50
2022-11-06T13:16:13.107Z,5.95
2022-11-06T13:18:53.193Z,6.13
2022-11-06T13:21:27.195Z,6.43
2022-11-06T13:24:08.038Z,6.78
2022-11-06T13:26:48.042Z,6.55
2022-11-06T13:29:17.856Z,6.65
2022-11-06T13:31:49.350Z,6.38
2022-11-06T13:34:24.114Z,5.95
2022-11-06T13:36:53.421Z,6.28
2022-11-06T13:39:33.490Z,6.68
2022-11-06T13:42:02.771Z,6.55
2022-11-06T13:44:31.200Z,6.22
2022-11-06T13:47:09.154Z,5.80
2022-11-06T13:50:05.024Z,6.53
2022-11-06T13:53:07.867Z,6.65
2022-11-06T13:55:54.203Z,6.20
2022-11-06T13:58:41.010Z,6.95
2022-11-06T14:01:27.386Z,6.18
2022-11-06T14:04:19.927Z,6.43
2022-11-06T14:06:52.031Z,5.95
2022-11-06T14:09:24.350Z,5.25
2022-11-06T14:11:58.803Z,5.70
2022-11-06T14:14:29.468Z,6.13
2022-11-06T14:17:12.484Z,6.00
2022-11-06T14:19:47.605Z,5.77
2022-11-06T14:22:30.689Z,6.53
2022-11-06T14:25:02.043Z,5.97
2022-11-06T14:27:30.127Z,8.03
2022-11-06T14:30:17.917Z,8.17
2022-11-06T14:32:48.375Z,7.97
2022-11-06T14:35:31.273Z,8.80
2022-11-06T14:38:11.979Z,9.67
2022-11-06T14:40:40.251Z,10.87
2022-11-06T14:43:27.292Z,10.97
2022-11-06T14:46:00.845Z,11.23
2022-11-06T14:48:50.487Z,12.67
2022-11-06T14:51:26.980Z,11.30
2022-11-06T14:53:59.432Z,10.80
2022-11-06T14:56:33.790Z,12.37
2022-11-06T14:59:09.292Z,11.07
2022-11-06T15:01:37.862Z,10.00
2022-11-06T15:04:14.981Z,9.60
2022-11-06T15:06:46.302Z,9.53
2022-11-06T15:09:39.557Z,10.60
2022-11-06T15:12:08.571Z,9.70
2022-11-06T15:14:35.820Z,9.43
2022-11-06T15:17:05.094Z,8.37
2022-11-06T15:19:48.609Z,10.03
2022-11-06T15:22:28.213Z,10.50
2022-11-06T15:25:11.303Z,10.87
2022-11-06T15:27:46.561Z,11.50
2022-11-06T15:30:19.560Z,11.60
2022-11-06T15:32:49.165Z,11.23
2022-11-06T15:35:22.127Z,13.00
2022-11-06T15:37:53.955Z,12.87
2022-11-06T15:40:36.945Z,14.33
2022-11-06T15:43:30.134Z,17.43
2022-11-06T15:46:15.283Z,19.27
2022-11-06T15:48:44.221Z,16.80
2022-11-06T15:51:26.108Z,19.10
2022-11-06T15:53:54.436Z,17.17
2022-11-06T15:56:29.886Z,15.87
2022-11-06T15:59:14.824Z,15.00
2022-11-06T16:01:47.116Z,16.00
2022-11-06T16:04:22.029Z,14.50
2022-11-06T16:06:51.727Z,14.80
2022-11-06T16:09:25.537Z,14.20
2022-11-06T16:11:54.111Z,12.70
2022-11-06T16:14:22.674Z,13.10
2022-11-06T16:16:53.061Z,14.10
2022-11-06T16:19:32.369Z,12.77
2022-11-06T16:22:11.505Z,12.67
2022-11-06T16:25:04.019Z,12.50
2022-11-06T16:27:36.640Z,12.43
2022-11-06T16:30:06.635Z,12.20
2022-11-06T16:32:41.045Z,11.70
2022-11-06T16:35:32.068Z,13.33
2022-11-06T16:38:49.466Z,13.33
2022-11-06T16:41:37.340Z,13.07
2022-11-06T16:44:37.458Z,11.77
2022-11-06T16:47:10.638Z,12.43
2022-11-06T16:49:42.253Z,13.33
2022-11-06T16:52:32.715Z,13.43
2022-11-06T16:55:04.514Z,14.13
2022-11-06T16:57:57.405Z,18.07
2022-11-06T17:00:29.554Z,20.57
2022-11-06T17:03:18.886Z,19.10
2022-11-06T17:05:57.325Z,22.43
2022-11-06T17:08:30.835Z,24.17
2022-11-06T17:11:14.625Z,27.10
2022-11-06T17:13:44.451Z,22.73
2022-11-06T17:16:16.064Z,22.33
2022-11-06T17:18:44.080Z,21.37
2022-11-06T17:21:15.328Z,21.63
2022-11-06T17:23:43.414Z,23.63
2022-11-06T17:26:17.150Z,22.83
2022-11-06T17:28:44.707Z,24.57
2022-11-06T17:31:15.079Z,25.73
2022-11-06T17:33:43.811Z,26.07
2022-11-06T17:36:26.846Z,25.53
2022-11-06T17:38:56.098Z,29.70
2022-11-06T17:41:31.354Z,29.67
2022-11-06T17:44:03.889Z,31.63
2022-11-06T17:46:38.007Z,33.97
2022-11-06T17:49:06.178Z,31.33
2022-11-06T17:51:53.282Z,32.13
2022-11-06T17:54:23.177Z,34.40
2022-11-06T17:56:51.756Z,33.43
2022-11-06T17:59:19.638Z,34.83
2022-11-06T18:01:48.186Z,33.23
2022-11-06T18:04:16.333Z,34.53
2022-11-06T18:06:49.338Z,34.90
2022-11-06T18:09:17.924Z,32.63
2022-11-06T18:11:46.300Z,35.13
2022-11-06T18:14:15.570Z,33.67
2022-11-06T18:16:44.252Z,32.30
2022-11-06T18:19:16.182Z,32.70
2022-11-06T18:21:44.297Z,30.93
2022-11-06T18:24:11.776Z,30.93
2022-11-06T18:26:40.489Z,31.53
2022-11-06T18:29:11.703Z,33.00
2022-11-06T18:31:42.192Z,31.13
2022-11-06T18:34:20.288Z,31.90
2022-11-06T18:36:51.000Z,30.57
2022-11-06T18:39:19.871Z,29.80
2022-11-06T18:41:50.092Z,29.80
2022-11-06T18:44:20.166Z,31.33
2022-11-06T18:46:49.893Z,31.07
2022-11-06T18:49:21.365Z,32.57
2022-11-06T18:51:52.157Z,31.03
2022-11-06T18:54:21.135Z,31.93
2022-11-06T18:56:49.860Z,31.67
2022-11-06T18:59:21.131Z,30.13
2022-11-06T19:01:49.523Z,34.00
2022-11-06T19:04:18.272Z,33.93
2022-11-06T19:06:47.064Z,34.80
2022-11-06T19:09:14.996Z,33.50
2022-11-06T19:11:42.975Z,31.70
2022-11-06T19:14:11.011Z,35.43
2022-11-06T19:16:39.534Z,32.60
2022-11-06T19:19:07.810Z,33.80
2022-11-06T19:21:36.213Z,33.13
2022-11-06T19:24:05.713Z,30.10
2022-11-06T19:26:36.235Z,32.53
2022-11-06T19:29:08.418Z,30.57
2022-11-06T19:31:37.580Z,30.73
2022-11-06T19:34:06.817Z,30.63
2022-11-06T19:36:35.255Z,31.27
2022-11-06T19:39:03.870Z,30.10
2022-11-06T19:41:31.801Z,31.67
2022-11-06T19:43:59.727Z,31.33
2022-11-06T19:46:33.948Z,31.10
2022-11-06T19:49:06.262Z,31.30
2022-11-06T19:51:41.270Z,30.03
2022-11-06T19:54:10.353Z,33.43
2022-11-06T19:57:29.583Z,30.93
2022-11-06T19:59:26.507Z,29.37
2022-11-06T20:01:54.509Z,32.40
2022-11-06T20:04:22.926Z,33.17
2022-11-06T20:06:52.955Z,31.23
2022-11-06T20:09:21.749Z,30.53
2022-11-06T20:11:52.576Z,30.60
2022-11-06T20:14:22.106Z,31.67
2022-11-06T20:16:51.424Z,31.43
2022-11-06T20:19:19.111Z,32.87
2022-11-06T20:21:46.775Z,30.73
2022-11-06T20:24:14.425Z,32.87
2022-11-06T20:26:42.253Z,32.97
2022-11-06T20:29:09.848Z,33.50
2022-11-06T20:31:38.262Z,30.43
2022-11-06T20:34:05.832Z,35.00
2022-11-06T20:36:35.773Z,31.67
2022-11-06T20:39:04.258Z,32.90
2022-11-06T20:41:32.863Z,35.80
2022-11-06T20:44:00.818Z,35.00
2022-11-06T20:46:29.446Z,36.23
2022-11-06T20:48:58.486Z,33.90
2022-11-06T20:51:27.916Z,35.27
2022-11-06T20:53:55.736Z,36.53
2022-11-06T20:56:27.280Z,38.00
2022-11-06T20:58:55.899Z,36.00
2022-11-06T21:01:29.565Z,35.67
2022-11-06T21:03:58.560Z,33.27
2022-11-06T21:06:27.792Z,33.90
2022-11-06T21:08:56.078Z,34.00
2022-11-06T21:11:27.219Z,35.37
2022-11-06T21:13:54.964Z,32.90
2022-11-06T21:16:32.709Z,37.93
2022-11-06T21:19:01.774Z,40.37
2022-11-06T21:21:33.397Z,38.07
2022-11-06T21:24:02.541Z,37.13
2022-11-06T21:26:34.595Z,37.43
2022-11-06T21:29:06.188Z,38.07
2022-11-06T21:31:34.923Z,40.53
2022-11-06T21:34:04.121Z,41.27
2022-11-06T21:36:38.178Z,50.27
2022-11-06T21:39:19.057Z,44.83
2022-11-06T21:41:49.799Z,52.63
2022-11-06T21:44:19.041Z,51.37
2022-11-06T21:46:47.053Z,51.53
2022-11-06T21:49:15.015Z,49.80
2022-11-06T21:51:42.991Z,49.30
2022-11-06T21:54:31.190Z,49.33
2022-11-06T21:56:59.131Z,46.23
2022-11-06T21:59:28.601Z,44.93
2022-11-06T22:01:56.656Z,44.03
2022-11-06T22:04:24.513Z,43.40
2022-11-06T22:06:52.800Z,48.13
2022-11-06T22:09:24.790Z,45.30
2022-11-06T22:11:53.123Z,62.80
2022-11-06T22:14:20.656Z,48.43
2022-11-06T22:16:48.497Z,54.87
2022-11-06T22:19:17.784Z,65.43
2022-11-06T22:21:45.947Z,54.43
2022-11-06T22:24:14.558Z,70.50
2022-11-06T22:26:42.324Z,75.77
2022-11-06T22:29:13.549Z,52.80
2022-11-06T22:31:41.495Z,52.70
2022-11-06T22:34:12.360Z,68.63
2022-11-06T22:36:41.313Z,66.93
2022-11-06T22:39:10.265Z,53.33
2022-11-06T22:41:38.894Z,46.30
2022-11-06T22:44:07.065Z,45.33
2022-11-06T22:46:35.397Z,42.23
2022-11-06T22:49:04.382Z,44.07
2022-11-06T22:51:33.567Z,43.93
2022-11-06T22:54:01.895Z,42.43
2022-11-06T22:56:31.220Z,37.97
2022-11-06T22:59:01.830Z,41.03
2022-11-06T23:01:31.180Z,40.53
2022-11-06T23:04:03.813Z,40.37
2022-11-06T23:06:32.491Z,36.73
2022-11-06T23:09:00.221Z,41.80
2022-11-06T23:11:29.133Z,47.67
2022-11-06T23:13:57.733Z,62.20
2022-11-06T23:16:49.645Z,52.80
2022-11-06T23:19:19.618Z,58.63
2022-11-06T23:21:47.001Z,51.57
2022-11-06T23:24:15.453Z,40.60
2022-11-06T23:26:44.343Z,34.67
2022-11-06T23:29:12.222Z,31.53
2022-11-06T23:31:41.382Z,34.00
2022-11-06T23:34:09.162Z,34.67
2022-11-06T23:36:36.488Z,33.07
2022-11-06T23:39:05.413Z,34.50
2022-11-06T23:41:46.215Z,32.37
2022-11-06T23:44:33.758Z,30.63
2022-11-06T23:47:01.695Z,34.17
2022-11-06T23:49:29.712Z,31.57
2022-11-06T23:51:57.717Z,34.23
2022-11-06T23:54:25.829Z,32.77
2022-11-06T23:56:53.131Z,34.00
2022-11-06T23:59:21.383Z,28.67
